createdAt,value
2022-09-04T00:15:09.347Z,14.29
2022-09-04T00:35:47.085Z,14.11
2022-09-04T00:56:08.934Z,13.98
2022-09-04T01:15:47.009Z,13.85
2022-09-04T01:35:25.666Z,13.75
2022-09-04T01:56:11.650Z,13.58
2022-09-04T02:15:37.579Z,13.34
2022-09-04T02:35:15.859Z,13.18
2022-09-04T02:55:57.183Z,13.12
2022-09-04T03:16:43.468Z,12.93
2022-09-04T03:35:21.654Z,12.78
2022-09-04T03:56:35.831Z,12.84
2022-09-04T04:16:27.577Z,13.13
2022-09-04T04:34:53.908Z,13.3
2022-09-04T04:55:20.128Z,13.46
2022-09-04T05:16:21.703Z,13.54
2022-09-04T05:36:14.903Z,13.88
2022-09-04T05:55:34.783Z,14.21
2022-09-04T06:16:21.815Z,14.56
2022-09-04T06:35:31.792Z,14.78
2022-09-04T06:56:08.048Z,15.19
2022-09-04T07:16:26.225Z,15.14
2022-09-04T07:35:52.380Z,15.54
2022-09-04T07:55:58.443Z,15.9
2022-09-04T08:16:36.739Z,16.25
2022-09-04T08:36:17.278Z,16.57
2022-09-04T08:55:33.115Z,17.51
2022-09-04T09:16:24.824Z,18.44
2022-09-04T09:35:57.676Z,19.29
2022-09-04T09:55:00.182Z,20.29
2022-09-04T10:15:06.200Z,21.67
2022-09-04T10:36:00.973Z,23.99
2022-09-04T10:56:30.522Z,25.26
2022-09-04T11:16:07.444Z,26.19
2022-09-04T11:36:02.281Z,26.91
2022-09-04T11:55:08.134Z,27.55
2022-09-04T12:15:58.340Z,28.79
2022-09-04T12:35:55.212Z,29.27
2022-09-04T12:55:41.850Z,28.23
2022-09-04T13:16:19.686Z,29.11
2022-09-04T13:36:18.787Z,29.09
2022-09-04T13:55:54.256Z,29.24
2022-09-04T14:16:23.419Z,26.68
2022-09-04T14:35:56.056Z,27.41
2022-09-04T14:55:12.524Z,27.32
2022-09-04T15:15:02.881Z,27.14
2022-09-04T15:35:01.152Z,26.84
2022-09-04T15:56:04.696Z,26.16
2022-09-04T16:16:44.667Z,25.7
2022-09-04T16:36:55.925Z,25.16
2022-09-04T16:56:36.780Z,24.91
2022-09-04T17:14:25.456Z,24.77
2022-09-04T17:40:34.195Z,24.39
2022-09-04T17:55:47.436Z,23.64
2022-09-04T18:15:53.960Z,22.87
2022-09-04T18:37:14.021Z,22.05
2022-09-04T18:56:17.875Z,21.4
2022-09-04T19:15:45.609Z,20.7
2022-09-04T19:35:43.572Z,20.19
2022-09-04T19:55:25.933Z,19.73
2022-09-04T20:15:58.721Z,19.37
2022-09-04T20:34:59.221Z,19.07
2022-09-04T20:55:23.549Z,18.66
2022-09-04T21:16:14.588Z,18.34
2022-09-04T21:35:48.829Z,17.97
2022-09-04T21:58:11.584Z,17.65
2022-09-04T22:15:25.009Z,17.36
2022-09-04T22:36:28.478Z,17.11
2022-09-04T22:56:05.304Z,16.87
2022-09-04T23:16:10.265Z,16.64
2022-09-04T23:35:39.640Z,16.43
2022-09-04T23:56:12.513Z,16.27
